Time;durP1;ratioP1;P1;durP2;ratioP2;P2;SDS_P1;SDS_P2;PMS_P1;PMS_P2;Temp;Humidity;BMP_temperature;BMP_pressure;BME280_temperature;BME280_humidity;BME280_pressure;Samples;Min_cycle;Max_cycle;Signal;HPM_P1;HPM_P2
2022/12/04 00:00:19;;;;;;;74.27;38.20;;;1.80;1.00;;;;;;5102304;28;20548;-66
2022/12/04 00:02:46;;;;;;;74.97;37.20;;;1.80;1.00;;;;;;5101858;28;20569;-66
2022/12/04 00:05:13;;;;;;;63.70;33.87;;;1.80;1.00;;;;;;5102737;28;20452;-66
2022/12/04 00:07:39;;;;;;;72.33;37.43;;;1.80;99.90;;;;;;5102390;28;20474;-66
2022/12/04 00:10:07;;;;;;;75.53;37.47;;;1.80;99.90;;;;;;5102272;28;20461;-67
2022/12/04 00:12:35;;;;;;;77.87;35.67;;;1.80;1.00;;;;;;5101614;28;20485;-68
2022/12/04 00:15:04;;;;;;;73.93;37.70;;;1.80;1.00;;;;;;5102583;28;20459;-66
2022/12/04 00:17:30;;;;;;;73.50;37.30;;;1.80;25.70;;;;;;5102768;28;20453;-66
2022/12/04 00:19:57;;;;;;;73.57;36.30;;;1.80;9.40;;;;;;5102719;28;20540;-67
2022/12/04 00:22:24;;;;;;;79.43;38.13;;;1.80;1.00;;;;;;5102337;28;20521;-66
2022/12/04 00:24:51;;;;;;;75.80;37.30;;;1.80;1.00;;;;;;5102018;28;20510;-67
2022/12/04 00:27:18;;;;;;;69.33;34.03;;;1.80;1.00;;;;;;5101783;28;20488;-65
2022/12/04 00:29:44;;;;;;;69.37;36.17;;;1.80;99.90;;;;;;5102388;28;20499;-66
2022/12/04 00:32:13;;;;;;;67.87;36.30;;;1.80;1.00;;;;;;5102580;28;20513;-65
2022/12/04 00:34:39;;;;;;;71.87;37.03;;;1.80;99.90;;;;;;5102775;28;20544;-65
2022/12/04 00:37:06;;;;;;;68.57;36.80;;;1.90;1.00;;;;;;5102164;28;20879;-65
2022/12/04 00:39:33;;;;;;;76.43;37.57;;;1.90;1.00;;;;;;5103577;28;20821;-64
2022/12/04 00:42:00;;;;;;;76.63;39.07;;;1.90;1.00;;;;;;5103088;28;20520;-65
2022/12/04 00:44:27;;;;;;;76.43;37.10;;;1.90;1.00;;;;;;5103470;28;20651;-65
2022/12/04 00:46:54;;;;;;;81.80;37.97;;;1.90;1.00;;;;;;5104188;28;20489;-67
2022/12/04 00:49:22;;;;;;;73.60;37.17;;;1.90;99.90;;;;;;5103134;28;20608;-66
2022/12/04 00:51:48;;;;;;;72.47;37.77;;;1.90;1.00;;;;;;5102745;28;20548;-65
2022/12/04 00:54:15;;;;;;;79.03;38.43;;;1.90;52.50;;;;;;5104517;28;20477;-65
2022/12/04 00:56:42;;;;;;;69.90;37.20;;;1.90;99.90;;;;;;5106017;28;20519;-64
2022/12/04 00:59:10;;;;;;;76.13;38.53;;;1.80;99.90;;;;;;5104894;28;20540;-65
2022/12/04 01:01:37;;;;;;;77.90;38.77;;;1.80;99.90;;;;;;5105484;28;20564;-65
2022/12/04 01:04:04;;;;;;;74.43;36.87;;;1.80;1.00;;;;;;5103610;28;20564;-65
2022/12/04 01:06:34;;;;;;;76.30;37.13;;;1.80;1.00;;;;;;5102360;28;20536;-66
2022/12/04 01:09:03;;;;;;;80.53;38.80;;;1.80;1.00;;;;;;5103696;28;20469;-65
2022/12/04 01:11:31;;;;;;;81.77;38.00;;;1.80;1.00;;;;;;5102682;28;20833;-65
2022/12/04 01:13:59;;;;;;;73.73;36.00;;;1.80;1.00;;;;;;5103519;28;20445;-66
2022/12/04 01:16:28;;;;;;;79.63;38.03;;;1.80;1.00;;;;;;5102114;28;20493;-66
2022/12/04 01:18:56;;;;;;;74.37;38.40;;;1.80;1.00;;;;;;5101877;28;20539;-65
2022/12/04 01:21:23;;;;;;;80.10;39.27;;;1.80;1.00;;;;;;5101210;28;20826;-66
2022/12/04 01:23:51;;;;;;;82.93;40.73;;;1.80;1.00;;;;;;5101422;28;20568;-66
2022/12/04 01:26:18;;;;;;;80.40;38.73;;;1.80;1.00;;;;;;5102455;28;20532;-65
2022/12/04 01:28:45;;;;;;;85.00;40.70;;;1.80;1.00;;;;;;5101283;28;20457;-65
2022/12/04 01:31:13;;;;;;;77.20;37.83;;;1.80;1.00;;;;;;5102190;28;20553;-66
2022/12/04 01:33:41;;;;;;;79.40;39.00;;;1.80;1.00;;;;;;5105370;28;20525;-65
2022/12/04 01:36:10;;;;;;;84.23;40.20;;;1.80;70.80;;;;;;5105595;28;20575;-65
2022/12/04 01:38:37;;;;;;;82.97;38.97;;;1.80;90.90;;;;;;5105622;28;20861;-65
2022/12/04 01:41:07;;;;;;;85.30;39.60;;;1.80;99.90;;;;;;5105914;28;20535;-65
2022/12/04 01:43:35;;;;;;;72.90;36.20;;;1.80;99.90;;;;;;5104926;28;20540;-65
2022/12/04 01:46:03;;;;;;;84.43;41.60;;;1.90;99.90;;;;;;5104682;28;20542;-66
2022/12/04 01:48:32;;;;;;;79.80;38.10;;;1.90;99.90;;;;;;5104902;28;20551;-65
2022/12/04 01:51:04;;;;;;;84.77;41.90;;;1.90;99.90;;;;;;5105360;28;20488;-66
2022/12/04 01:53:33;;;;;;;85.90;41.47;;;1.90;99.90;;;;;;5105090;28;20480;-65
2022/12/04 01:56:01;;;;;;;85.43;37.87;;;1.90;99.90;;;;;;5104944;28;20521;-65
2022/12/04 01:58:34;;;;;;;84.13;41.60;;;1.90;99.90;;;;;;5104952;28;20517;-65
2022/12/04 02:01:05;;;;;;;77.43;39.80;;;1.90;99.90;;;;;;5105023;28;20517;-64
2022/12/04 02:03:33;;;;;;;91.77;41.70;;;1.90;99.90;;;;;;5104406;28;20466;-66
2022/12/04 02:06:00;;;;;;;79.43;41.27;;;1.90;99.90;;;;;;5104617;28;20545;-65
2022/12/04 02:08:28;;;;;;;84.37;39.30;;;1.90;99.90;;;;;;5104188;28;20544;-65
2022/12/04 02:11:04;;;;;;;78.83;39.27;;;1.90;99.90;;;;;;5104556;28;20450;-65
2022/12/04 02:13:39;;;;;;;89.97;42.17;;;1.90;99.90;;;;;;5105773;28;20497;-66
2022/12/04 02:16:14;;;;;;;87.77;40.60;;;1.90;99.90;;;;;;5104670;28;20473;-68
2022/12/04 02:18:50;;;;;;;88.77;41.10;;;1.90;99.90;;;;;;5104831;28;20452;-65
2022/12/04 02:21:24;;;;;;;88.53;43.10;;;1.90;99.90;;;;;;5104758;28;20433;-68
2022/12/04 02:24:08;;;;;;;84.97;39.30;;;1.90;99.90;;;;;;5104764;28;20603;-67
2022/12/04 02:26:48;;;;;;;91.33;40.80;;;1.90;99.90;;;;;;5106138;28;20454;-67
2022/12/04 02:29:28;;;;;;;93.20;41.60;;;1.80;1.00;;;;;;5104564;28;20461;-67
2022/12/04 02:31:59;;;;;;;88.30;41.57;;;1.80;1.00;;;;;;5105457;28;20465;-67
2022/12/04 02:34:29;;;;;;;83.57;39.47;;;1.80;1.00;;;;;;5105607;28;20437;-66
2022/12/04 02:37:00;;;;;;;78.00;39.23;;;1.80;1.00;;;;;;5107149;28;20979;-67
2022/12/04 02:39:34;;;;;;;102.63;43.20;;;1.80;1.00;;;;;;5105614;28;20524;-68
2022/12/04 02:42:08;;;;;;;93.77;43.57;;;1.80;1.00;;;;;;5105315;28;20456;-69
2022/12/04 02:44:41;;;;;;;89.33;42.20;;;1.90;1.00;;;;;;5104650;28;20777;-67
2022/12/04 02:47:13;;;;;;;88.33;40.50;;;1.80;1.00;;;;;;5105434;28;20481;-66
2022/12/04 02:49:45;;;;;;;89.50;40.60;;;1.90;1.00;;;;;;5104900;28;20446;-67
2022/12/04 02:52:16;;;;;;;94.00;42.90;;;1.80;1.00;;;;;;5104245;28;20448;-65
2022/12/04 02:54:46;;;;;;;90.20;42.67;;;1.80;1.00;;;;;;5105616;28;20458;-69
2022/12/04 02:57:17;;;;;;;89.43;42.80;;;1.90;1.00;;;;;;5104463;28;20507;-65
2022/12/04 02:59:47;;;;;;;92.63;40.63;;;1.90;1.00;;;;;;5104484;28;20481;-66
2022/12/04 03:02:19;;;;;;;92.20;41.47;;;1.80;1.00;;;;;;5104771;28;20669;-65
2022/12/04 03:04:49;;;;;;;96.17;41.73;;;1.80;1.00;;;;;;5103705;28;20548;-67
2022/12/04 03:07:25;;;;;;;103.07;45.60;;;1.80;1.00;;;;;;5104779;28;20936;-67
2022/12/04 03:09:56;;;;;;;101.70;44.37;;;1.80;1.00;;;;;;5106762;28;20475;-68
2022/12/04 03:12:29;;;;;;;87.43;42.07;;;1.80;1.00;;;;;;5104418;28;20852;-67
2022/12/04 03:15:02;;;;;;;89.83;42.60;;;1.80;1.00;;;;;;5104608;28;20829;-66
2022/12/04 03:17:32;;;;;;;91.07;42.47;;;1.80;1.00;;;;;;5104313;28;20497;-67
2022/12/04 03:20:04;;;;;;;97.73;42.40;;;1.80;1.00;;;;;;5104160;28;20442;-69
2022/12/04 03:22:33;;;;;;;95.27;39.37;;;1.80;1.00;;;;;;5103793;28;20461;-66
2022/12/04 03:25:02;;;;;;;96.23;42.07;;;1.80;1.00;;;;;;5104345;28;20477;-68
2022/12/04 03:27:38;;;;;;;85.83;41.60;;;1.80;1.00;;;;;;5103256;28;20544;-68
2022/12/04 03:30:09;;;;;;;90.73;39.50;;;1.80;1.00;;;;;;5104717;28;20441;-66
2022/12/04 03:32:42;;;;;;;89.60;38.90;;;1.80;1.00;;;;;;5105098;28;20461;-67
2022/12/04 03:35:19;;;;;;;87.23;40.50;;;1.80;1.00;;;;;;5104077;28;20822;-68
2022/12/04 03:37:53;;;;;;;85.10;41.20;;;1.80;1.00;;;;;;5103769;28;20492;-67
2022/12/04 03:40:25;;;;;;;94.23;41.23;;;1.90;1.00;;;;;;5103703;28;20476;-66
2022/12/04 03:43:00;;;;;;;89.50;40.90;;;1.80;1.00;;;;;;5104372;28;20532;-67
2022/12/04 03:45:35;;;;;;;81.03;38.80;;;1.90;1.00;;;;;;5104911;28;20560;-67
2022/12/04 03:48:06;;;;;;;84.87;37.20;;;1.90;1.00;;;;;;5104802;28;20497;-66
2022/12/04 03:50:37;;;;;;;86.07;39.50;;;1.90;1.00;;;;;;5104192;28;20537;-67
2022/12/04 03:53:11;;;;;;;89.13;40.57;;;1.90;1.00;;;;;;5103215;28;20438;-64
2022/12/04 03:55:45;;;;;;;82.43;39.27;;;1.90;1.00;;;;;;5102639;28;20551;-65
2022/12/04 03:58:16;;;;;;;88.33;39.60;;;1.90;1.00;;;;;;5102461;28;20506;-65
2022/12/04 04:00:46;;;;;;;91.07;41.60;;;2.00;1.00;;;;;;5102756;28;20441;-65
2022/12/04 04:03:17;;;;;;;88.70;41.17;;;2.00;1.00;;;;;;5102349;28;20457;-65
2022/12/04 04:05:47;;;;;;;90.67;39.40;;;1.90;1.00;;;;;;5104220;28;20461;-64
2022/12/04 04:08:29;;;;;;;83.53;38.83;;;1.90;1.00;;;;;;5103481;28;20481;-65
2022/12/04 04:11:05;;;;;;;78.80;37.20;;;1.90;1.00;;;;;;5103744;28;20441;-66
2022/12/04 04:24:53;;;;;;;90.23;39.57;;;2.10;1.00;;;;;;5103013;28;20465;-65
2022/12/04 04:27:20;;;;;;;85.90;42.60;;;2.10;99.90;;;;;;5101242;28;20516;-65
2022/12/04 04:29:47;;;;;;;86.23;39.23;;;2.10;99.90;;;;;;5101287;28;20477;-65
2022/12/04 04:32:23;;;;;;;85.40;40.80;;;2.10;99.90;;;;;;5103128;28;20477;-65
2022/12/04 04:34:56;;;;;;;88.20;38.20;;;2.10;99.90;;;;;;5101374;28;20457;-65
2022/12/04 04:37:29;;;;;;;82.13;37.40;;;2.10;99.90;;;;;;5101061;28;20477;-65
2022/12/04 04:40:03;;;;;;;82.33;37.73;;;2.10;99.90;;;;;;5101433;28;20601;-65
2022/12/04 04:42:34;;;;;;;78.60;37.83;;;2.10;99.90;;;;;;5101187;28;20441;-65
2022/12/04 04:45:06;;;;;;;83.37;37.67;;;2.10;99.90;;;;;;5099578;28;20557;-65
2022/12/04 04:47:40;;;;;;;76.20;38.97;;;2.10;99.90;;;;;;5099690;28;20441;-66
2022/12/04 04:50:11;;;;;;;86.10;39.07;;;2.00;99.90;;;;;;5099442;28;20528;-66
2022/12/04 04:52:40;;;;;;;87.37;37.67;;;2.00;1.00;;;;;;5100651;28;20520;-65
2022/12/04 04:55:09;;;;;;;83.27;38.27;;;2.00;99.90;;;;;;5102824;28;20484;-65
2022/12/04 04:57:37;;;;;;;74.30;36.97;;;2.00;1.00;;;;;;5103047;28;20852;-66
2022/12/04 05:00:08;;;;;;;82.53;40.20;;;2.00;1.00;;;;;;5102760;28;20874;-65
2022/12/04 05:02:36;;;;;;;82.97;40.93;;;2.00;99.90;;;;;;5102303;28;20920;-66
2022/12/04 05:05:04;;;;;;;77.83;38.57;;;2.10;1.00;;;;;;5101545;28;20573;-65
2022/12/04 05:07:31;;;;;;;81.27;37.50;;;2.10;1.00;;;;;;5104208;28;20945;-65
2022/12/04 05:09:57;;;;;;;70.77;36.90;;;2.10;99.90;;;;;;5104826;28;20544;-65
2022/12/04 05:12:24;;;;;;;82.97;39.17;;;2.10;1.00;;;;;;5104603;28;20881;-65
2022/12/04 05:14:51;;;;;;;79.53;36.83;;;2.10;1.00;;;;;;5105666;28;20765;-66
2022/12/04 05:17:18;;;;;;;76.93;38.70;;;2.10;99.90;;;;;;5104989;28;20484;-66
2022/12/04 05:19:55;;;;;;;88.97;40.53;;;2.10;1.00;;;;;;5104462;28;20456;-66
2022/12/04 05:22:24;;;;;;;76.30;40.37;;;2.10;1.00;;;;;;5105131;28;20437;-66
2022/12/04 05:24:52;;;;;;;87.60;37.70;;;2.10;1.00;;;;;;5104677;28;20491;-65
2022/12/04 05:27:19;;;;;;;82.87;38.10;;;2.10;1.00;;;;;;5104636;28;20453;-66
2022/12/04 05:29:46;;;;;;;76.47;37.40;;;2.10;1.00;;;;;;5105052;28;20531;-67
2022/12/04 05:32:13;;;;;;;77.70;37.23;;;2.10;1.00;;;;;;5104718;28;20495;-66
2022/12/04 05:34:40;;;;;;;77.10;37.40;;;2.10;1.00;;;;;;5104944;28;20452;-66
2022/12/04 05:37:08;;;;;;;75.60;37.03;;;2.10;1.00;;;;;;5103976;28;20553;-66
2022/12/04 05:39:35;;;;;;;71.90;34.83;;;2.10;1.00;;;;;;5104156;28;20620;-65
2022/12/04 05:42:02;;;;;;;80.90;37.20;;;2.10;1.00;;;;;;5104357;28;20483;-66
2022/12/04 05:44:29;;;;;;;83.00;38.27;;;2.10;1.00;;;;;;5104323;28;20548;-67
2022/12/04 05:46:56;;;;;;;79.97;37.53;;;2.10;1.00;;;;;;5104228;28;20488;-66
2022/12/04 05:49:23;;;;;;;79.60;37.67;;;2.10;1.00;;;;;;5104881;28;20536;-67
2022/12/04 05:51:50;;;;;;;75.70;37.47;;;2.10;1.00;;;;;;5104568;28;20454;-67
2022/12/04 05:54:19;;;;;;;74.07;37.20;;;2.10;1.00;;;;;;5104794;28;20905;-66
2022/12/04 05:56:46;;;;;;;72.97;36.80;;;2.20;1.00;;;;;;5104943;28;20540;-68
2022/12/04 05:59:13;;;;;;;75.43;37.17;;;2.20;1.00;;;;;;5104592;28;20619;-65
2022/12/04 06:01:40;;;;;;;81.77;38.17;;;2.20;1.00;;;;;;5104184;28;20548;-66
2022/12/04 06:04:07;;;;;;;80.40;36.07;;;2.20;1.00;;;;;;5103622;28;21007;-66
2022/12/04 06:06:34;;;;;;;87.50;40.30;;;2.20;1.00;;;;;;5103598;28;20457;-66
2022/12/04 06:09:01;;;;;;;82.10;38.67;;;2.20;1.00;;;;;;5104754;28;20461;-67
2022/12/04 06:11:32;;;;;;;73.00;37.80;;;2.20;99.90;;;;;;5103676;28;20512;-66
2022/12/04 06:14:00;;;;;;;82.43;36.07;;;2.20;1.00;;;;;;5103400;28;20470;-66
2022/12/04 06:16:29;;;;;;;82.87;37.20;;;2.20;1.00;;;;;;5104080;28;20536;-66
2022/12/04 06:18:57;;;;;;;73.27;36.87;;;2.20;99.90;;;;;;5102954;28;20464;-66
2022/12/04 06:21:26;;;;;;;85.43;38.80;;;2.20;99.90;;;;;;5103564;28;20517;-66
2022/12/04 06:23:53;;;;;;;84.70;38.27;;;2.20;99.90;;;;;;5102927;28;20481;-66
2022/12/04 06:26:20;;;;;;;77.27;38.97;;;2.20;99.90;;;;;;5103058;28;20532;-65
2022/12/04 06:28:49;;;;;;;68.57;36.70;;;2.20;1.00;;;;;;5103671;28;20773;-67
2022/12/04 06:31:18;;;;;;;69.63;35.03;;;2.20;1.00;;;;;;5105025;28;20457;-65
2022/12/04 06:33:45;;;;;;;66.60;34.00;;;2.20;1.00;;;;;;5106171;28;20529;-66
2022/12/04 06:36:14;;;;;;;73.23;36.87;;;2.20;99.90;;;;;;5106673;28;20515;-66
2022/12/04 06:38:42;;;;;;;75.13;35.60;;;2.20;1.00;;;;;;5105916;28;20477;-67
2022/12/04 06:41:10;;;;;;;78.20;35.93;;;2.30;1.00;;;;;;5103280;28;20453;-65
2022/12/04 06:43:37;;;;;;;70.87;34.40;;;2.30;1.00;;;;;;5103914;28;20569;-66
2022/12/04 06:46:08;;;;;;;87.00;38.90;;;2.30;99.90;;;;;;5103933;28;20568;-66
2022/12/04 06:48:35;;;;;;;78.10;38.53;;;2.30;99.90;;;;;;5103653;28;20495;-66
2022/12/04 06:51:03;;;;;;;69.03;35.13;;;2.30;99.90;;;;;;5103772;28;20849;-66
2022/12/04 06:53:31;;;;;;;76.90;36.80;;;2.30;99.90;;;;;;5103266;28;20502;-66
2022/12/04 06:55:58;;;;;;;75.93;36.43;;;2.30;99.90;;;;;;5103551;28;20481;-65
2022/12/04 06:58:26;;;;;;;69.33;35.60;;;2.30;99.90;;;;;;5103514;28;20468;-66
2022/12/04 07:00:53;;;;;;;67.90;34.77;;;2.30;99.90;;;;;;5103294;28;20496;-65
2022/12/04 07:03:21;;;;;;;81.03;35.90;;;2.30;99.90;;;;;;5103458;28;20457;-66
2022/12/04 07:05:49;;;;;;;75.93;35.33;;;2.30;99.90;;;;;;5103446;28;20482;-66
2022/12/04 07:08:16;;;;;;;70.07;37.60;;;2.30;99.90;;;;;;5102708;28;20532;-66
2022/12/04 07:10:43;;;;;;;83.77;35.97;;;2.30;99.90;;;;;;5102383;28;20536;-66
2022/12/04 07:13:10;;;;;;;66.53;35.13;;;2.30;99.90;;;;;;5102493;28;20544;-66
2022/12/04 07:15:38;;;;;;;80.23;37.40;;;2.30;99.90;;;;;;5104109;28;20480;-66
2022/12/04 07:18:05;;;;;;;75.80;36.87;;;2.30;99.90;;;;;;5104247;28;20481;-66
2022/12/04 07:20:33;;;;;;;68.13;35.00;;;2.30;99.90;;;;;;5102334;28;20484;-66
2022/12/04 07:23:00;;;;;;;77.00;35.97;;;2.30;99.90;;;;;;5103931;28;20517;-66
2022/12/04 07:25:28;;;;;;;72.50;38.10;;;2.40;1.00;;;;;;5102677;28;20497;-66
2022/12/04 07:27:55;;;;;;;70.10;36.57;;;2.40;1.00;;;;;;5105315;28;20468;-65
2022/12/04 07:30:22;;;;;;;71.37;36.50;;;2.30;99.90;;;;;;5102441;28;20458;-66
2022/12/04 07:32:49;;;;;;;79.20;38.73;;;2.40;99.90;;;;;;5102991;28;20445;-66
2022/12/04 07:35:16;;;;;;;72.20;35.83;;;2.40;1.00;;;;;;5102920;28;20525;-66
2022/12/04 07:37:44;;;;;;;68.50;34.93;;;2.40;1.00;;;;;;5102091;28;20532;-66
2022/12/04 07:40:13;;;;;;;67.07;34.23;;;2.40;1.00;;;;;;5102301;28;20477;-66
2022/12/04 07:42:39;;;;;;;68.60;36.47;;;2.40;1.00;;;;;;5102962;28;20850;-66
2022/12/04 07:45:07;;;;;;;75.73;37.30;;;2.50;1.00;;;;;;5101992;28;20897;-65
2022/12/04 07:47:36;;;;;;;72.17;38.33;;;2.50;99.90;;;;;;5102600;28;20782;-66
2022/12/04 07:50:03;;;;;;;76.00;35.00;;;2.50;99.90;;;;;;5101301;28;20468;-67
2022/12/04 07:52:30;;;;;;;83.60;39.40;;;2.50;99.90;;;;;;5102354;28;20484;-66
2022/12/04 07:54:58;;;;;;;73.83;35.67;;;2.50;99.90;;;;;;5102267;28;20492;-67
2022/12/04 07:57:25;;;;;;;83.13;35.73;;;2.50;99.90;;;;;;5102326;28;20857;-65
2022/12/04 07:59:52;;;;;;;65.93;35.23;;;2.50;99.90;;;;;;5103142;28;20495;-66
2022/12/04 08:02:19;;;;;;;72.07;35.17;;;2.50;99.90;;;;;;5102917;28;20540;-67
2022/12/04 08:04:46;;;;;;;74.60;35.10;;;2.50;1.00;;;;;;5103754;28;20477;-69
2022/12/04 08:07:13;;;;;;;71.73;34.60;;;2.50;1.00;;;;;;5101797;28;20493;-65
2022/12/04 08:09:40;;;;;;;81.80;36.87;;;2.50;99.90;;;;;;5101229;28;20485;-66
2022/12/04 08:12:08;;;;;;;69.93;35.73;;;2.50;99.90;;;;;;5102598;28;20536;-66
2022/12/04 08:14:35;;;;;;;74.73;35.10;;;2.50;1.00;;;;;;5101364;28;20468;-66
2022/12/04 08:17:02;;;;;;;74.23;37.33;;;2.60;99.90;;;;;;5101427;28;20529;-69
2022/12/04 08:19:29;;;;;;;70.77;36.93;;;2.60;99.90;;;;;;5101532;28;20510;-66
2022/12/04 08:21:56;;;;;;;74.50;35.47;;;2.60;99.90;;;;;;5101886;28;20996;-67
2022/12/04 08:24:23;;;;;;;72.00;34.97;;;2.60;99.90;;;;;;5103131;28;20518;-67
2022/12/04 08:26:50;;;;;;;73.10;34.90;;;2.60;99.90;;;;;;5102037;28;20495;-65
2022/12/04 08:29:18;;;;;;;68.00;35.30;;;2.60;99.90;;;;;;5100963;28;20485;-64
2022/12/04 08:31:45;;;;;;;71.33;36.47;;;2.60;99.90;;;;;;5103777;28;20480;-66
2022/12/04 08:34:12;;;;;;;75.93;34.67;;;2.60;99.90;;;;;;5101662;28;20445;-67
2022/12/04 08:36:39;;;;;;;72.23;34.20;;;2.70;99.90;;;;;;5100173;28;20560;-67
2022/12/04 08:39:05;;;;;;;76.53;36.07;;;2.70;99.90;;;;;;5101182;28;20492;-65
2022/12/04 08:41:32;;;;;;;74.50;35.90;;;2.70;99.90;;;;;;5102984;28;20536;-65
2022/12/04 08:43:59;;;;;;;74.17;36.30;;;2.60;99.90;;;;;;5105212;28;20951;-66
2022/12/04 08:46:28;;;;;;;67.80;33.03;;;2.60;99.90;;;;;;5105224;28;20933;-65
2022/12/04 08:48:56;;;;;;;77.40;36.07;;;2.60;99.90;;;;;;5104593;28;20989;-66
2022/12/04 08:51:26;;;;;;;71.43;35.87;;;2.60;99.90;;;;;;5105168;28;20453;-65
2022/12/04 08:53:55;;;;;;;78.80;35.70;;;2.70;99.90;;;;;;5105136;28;20516;-65
2022/12/04 08:56:22;;;;;;;72.57;36.10;;;2.70;99.90;;;;;;5104589;28;20930;-65
2022/12/04 08:58:49;;;;;;;70.73;33.97;;;2.70;99.90;;;;;;5105201;28;20453;-68
2022/12/04 09:01:16;;;;;;;70.77;35.60;;;2.70;99.90;;;;;;5104812;28;20496;-65
2022/12/04 09:03:44;;;;;;;72.47;35.33;;;2.70;1.00;;;;;;5104659;28;20550;-65
2022/12/04 09:06:13;;;;;;;74.93;34.97;;;2.70;1.00;;;;;;5104312;28;20472;-66
2022/12/04 09:08:40;;;;;;;78.83;36.13;;;2.80;99.90;;;;;;5104935;28;20495;-66
2022/12/04 09:11:10;;;;;;;72.80;35.23;;;2.80;99.90;;;;;;5104599;28;20454;-66
2022/12/04 09:13:38;;;;;;;72.10;35.20;;;2.70;99.90;;;;;;5104557;28;20544;-66
2022/12/04 09:16:06;;;;;;;71.23;34.47;;;2.80;99.90;;;;;;5100739;28;20536;-66
2022/12/04 09:18:34;;;;;;;80.40;39.07;;;2.80;99.90;;;;;;5097924;28;20457;-67
2022/12/04 09:21:05;;;;;;;67.87;37.83;;;2.80;99.90;;;;;;5098093;28;20484;-67
2022/12/04 09:23:33;;;;;;;69.40;37.67;;;2.80;99.90;;;;;;5098409;28;20484;-67
2022/12/04 09:26:00;;;;;;;73.23;35.83;;;2.80;99.90;;;;;;5099331;28;20564;-66
2022/12/04 09:28:27;;;;;;;79.60;35.50;;;2.80;99.90;;;;;;5100931;28;20536;-67
2022/12/04 09:30:58;;;;;;;66.67;35.93;;;2.90;99.90;;;;;;5099417;28;20530;-66
2022/12/04 09:33:25;;;;;;;70.53;33.77;;;2.90;99.90;;;;;;5098151;28;20453;-67
2022/12/04 09:35:52;;;;;;;72.90;34.07;;;2.90;99.90;;;;;;5097930;28;20615;-66
2022/12/04 09:38:20;;;;;;;66.00;35.43;;;2.90;99.90;;;;;;5097896;28;20834;-66
2022/12/04 09:40:55;;;;;;;75.10;36.73;;;2.90;99.90;;;;;;5097587;28;20457;-66
2022/12/04 09:43:31;;;;;;;69.70;34.37;;;2.90;99.90;;;;;;5098158;28;20444;-66
2022/12/04 09:46:03;;;;;;;69.93;33.07;;;2.90;99.90;;;;;;5097920;28;20461;-67
2022/12/04 09:48:34;;;;;;;61.33;32.70;;;2.90;99.90;;;;;;5098058;28;20528;-66
2022/12/04 09:51:03;;;;;;;70.17;31.70;;;3.00;99.90;;;;;;5098021;28;20528;-67
2022/12/04 09:53:41;;;;;;;70.67;35.50;;;3.00;99.90;;;;;;5097578;28;20464;-66
2022/12/04 09:56:12;;;;;;;70.73;35.00;;;3.00;99.90;;;;;;5098205;28;20438;-66
2022/12/04 09:58:42;;;;;;;64.20;33.20;;;3.00;99.90;;;;;;5097284;28;20851;-67
2022/12/04 10:01:19;;;;;;;65.40;33.73;;;2.90;99.90;;;;;;5097233;28;20480;-67
2022/12/04 10:03:46;;;;;;;66.13;33.03;;;2.90;99.90;;;;;;5097512;28;20441;-68
2022/12/04 10:06:19;;;;;;;67.47;33.47;;;2.90;99.90;;;;;;5097223;28;20568;-67
2022/12/04 10:08:53;;;;;;;67.67;32.60;;;2.90;99.90;;;;;;5097131;28;20474;-67
2022/12/04 10:11:27;;;;;;;68.20;34.60;;;2.90;99.90;;;;;;5097036;28;20438;-67
2022/12/04 10:14:22;;;;;;;74.57;34.83;;;2.90;99.90;;;;;;5096483;28;20532;-67
2022/12/04 10:17:08;;;;;;;64.77;32.33;;;3.00;99.90;;;;;;5099356;28;20534;-65
2022/12/04 10:19:42;;;;;;;66.27;32.97;;;3.00;1.00;;;;;;5102140;28;20524;-66
2022/12/04 10:22:16;;;;;;;65.87;31.43;;;3.10;99.90;;;;;;5103477;28;20462;-66
2022/12/04 10:24:49;;;;;;;69.07;35.63;;;3.10;99.90;;;;;;5102555;28;20506;-66
2022/12/04 10:27:21;;;;;;;68.97;33.80;;;3.10;99.90;;;;;;5102949;28;20632;-66
2022/12/04 10:29:52;;;;;;;66.53;32.97;;;3.10;99.90;;;;;;5103127;28;20471;-66
2022/12/04 10:32:22;;;;;;;66.83;35.00;;;3.20;99.90;;;;;;5102485;28;20441;-66
2022/12/04 10:34:52;;;;;;;65.97;31.90;;;3.20;99.90;;;;;;5103352;28;20445;-66
2022/12/04 10:37:19;;;;;;;64.67;33.40;;;3.20;99.90;;;;;;5102575;28;20588;-66
2022/12/04 10:39:52;;;;;;;61.87;31.27;;;3.20;99.90;;;;;;5102430;28;20457;-67
2022/12/04 10:42:26;;;;;;;68.53;33.50;;;3.20;99.90;;;;;;5102551;28;20451;-67
2022/12/04 10:44:53;;;;;;;60.87;33.87;;;3.20;99.90;;;;;;5102477;28;20543;-66
2022/12/04 10:47:22;;;;;;;64.73;34.20;;;3.30;99.90;;;;;;5101612;28;20507;-67
2022/12/04 10:49:57;;;;;;;60.43;31.57;;;3.30;99.90;;;;;;5101609;28;20485;-66
2022/12/04 10:52:23;;;;;;;53.37;31.77;;;3.30;99.90;;;;;;5102222;28;20468;-66
2022/12/04 10:54:55;;;;;;;66.83;32.80;;;3.30;99.90;;;;;;5102940;28;20536;-67
2022/12/04 10:57:22;;;;;;;65.13;33.77;;;3.30;99.90;;;;;;5102769;28;20745;-66
2022/12/04 10:59:51;;;;;;;67.13;32.80;;;3.30;99.90;;;;;;5101693;28;20548;-66
2022/12/04 11:02:22;;;;;;;66.87;33.27;;;3.30;99.90;;;;;;5102942;28;20472;-66
2022/12/04 11:04:56;;;;;;;60.37;32.30;;;3.30;99.90;;;;;;5103911;28;20495;-68
2022/12/04 11:07:24;;;;;;;71.07;32.70;;;3.30;99.90;;;;;;5102530;28;20461;-67
2022/12/04 11:09:58;;;;;;;64.63;32.13;;;3.30;99.90;;;;;;5101886;28;20541;-67
2022/12/04 11:12:25;;;;;;;64.97;34.63;;;3.30;99.90;;;;;;5102127;28;20849;-68
2022/12/04 11:15:03;;;;;;;63.07;33.53;;;3.30;99.90;;;;;;5101433;28;20489;-67
2022/12/04 11:17:30;;;;;;;66.53;33.67;;;3.30;99.90;;;;;;5101254;28;20485;-67
2022/12/04 11:20:03;;;;;;;62.07;34.77;;;3.30;99.90;;;;;;5101520;28;20484;-66
2022/12/04 11:22:31;;;;;;;62.50;34.07;;;3.40;99.90;;;;;;5101458;28;20468;-66
2022/12/04 11:25:06;;;;;;;63.10;33.60;;;3.40;99.90;;;;;;5097782;27;20534;-66
2022/12/04 11:27:35;;;;;;;60.33;32.90;;;3.40;99.90;;;;;;5097931;28;20524;-66
2022/12/04 11:30:08;;;;;;;68.10;35.63;;;3.40;99.90;;;;;;5097664;28;20481;-67
2022/12/04 11:32:35;;;;;;;74.20;35.43;;;3.40;99.90;;;;;;5097412;28;20831;-66
2022/12/04 11:35:12;;;;;;;57.73;32.07;;;3.40;99.90;;;;;;5099443;28;20777;-67
2022/12/04 11:37:39;;;;;;;62.93;36.90;;;3.50;99.90;;;;;;5098543;28;20521;-68
2022/12/04 11:40:19;;;;;;;68.23;33.90;;;3.50;99.90;;;;;;5097956;28;20532;-67
2022/12/04 11:42:59;;;;;;;69.70;33.80;;;3.50;99.90;;;;;;5097771;28;20441;-67
2022/12/04 11:45:26;;;;;;;64.23;32.87;;;3.50;99.90;;;;;;5098767;28;20544;-66
2022/12/04 11:47:55;;;;;;;65.40;34.40;;;3.50;99.90;;;;;;5098265;28;20453;-66
2022/12/04 11:50:30;;;;;;;62.37;36.43;;;3.50;99.90;;;;;;5098383;28;20529;-66
2022/12/04 11:53:06;;;;;;;60.73;33.23;;;3.60;99.90;;;;;;5097991;28;20499;-67
2022/12/04 11:55:42;;;;;;;59.60;31.80;;;3.60;99.90;;;;;;5098369;28;20438;-67
2022/12/04 11:58:35;;;;;;;57.43;32.53;;;3.60;99.90;;;;;;5098900;28;20528;-67
2022/12/04 12:01:13;;;;;;;57.97;31.53;;;3.60;99.90;;;;;;5098222;28;20442;-66
2022/12/04 12:03:51;;;;;;;60.50;31.43;;;3.60;99.90;;;;;;5097626;28;20897;-66
2022/12/04 12:06:34;;;;;;;64.33;30.63;;;3.60;78.00;;;;;;5097922;28;20822;-66
2022/12/04 12:09:21;;;;;;;66.13;32.90;;;3.60;99.90;;;;;;5098528;28;20820;-66
2022/12/04 12:11:56;;;;;;;82.43;37.40;;;3.50;99.90;;;;;;5099351;28;20474;-65
2022/12/04 12:14:30;;;;;;;57.60;32.87;;;3.50;99.90;;;;;;5095654;28;20433;-67
2022/12/04 12:17:05;;;;;;;74.87;35.20;;;3.50;99.90;;;;;;5092248;28;20485;-68
2022/12/04 12:20:05;;;;;;;63.47;33.80;;;3.50;99.90;;;;;;5093033;28;20869;-67
2022/12/04 12:22:47;;;;;;;67.13;31.63;;;3.50;99.90;;;;;;5090796;28;20515;-66
2022/12/04 12:25:19;;;;;;;62.40;30.67;;;3.50;99.90;;;;;;5093132;28;20548;-67
2022/12/04 12:28:13;;;;;;;68.90;31.43;;;3.50;99.90;;;;;;5092820;28;20851;-67
2022/12/04 12:30:55;;;;;;;57.73;30.87;;;3.50;99.90;;;;;;5092372;28;20457;-68
2022/12/04 12:33:26;;;;;;;61.80;32.90;;;3.40;99.90;;;;;;5092539;28;20822;-67
2022/12/04 12:36:00;;;;;;;66.20;32.90;;;3.40;99.90;;;;;;5082178;28;20446;-67
2022/12/04 12:38:36;;;;;;;66.77;36.33;;;3.50;99.90;;;;;;5076248;28;20486;-66
2022/12/04 12:41:07;;;;;;;73.23;33.90;;;3.50;99.90;;;;;;5060737;28;20478;-67
2022/12/04 12:43:38;;;;;;;63.17;33.00;;;3.40;99.90;;;;;;5060929;28;20850;-67
2022/12/04 12:46:12;;;;;;;66.60;32.40;;;3.40;99.90;;;;;;5059550;28;20531;-68
2022/12/04 12:48:46;;;;;;;68.67;33.93;;;3.40;99.90;;;;;;5059534;28;20443;-67
2022/12/04 12:51:27;;;;;;;71.73;37.53;;;3.40;99.90;;;;;;5059497;28;20558;-67
2022/12/04 12:54:13;;;;;;;93.20;37.97;;;3.30;99.90;;;;;;5060133;28;20435;-66
2022/12/04 12:56:45;;;;;;;68.10;33.97;;;3.40;99.90;;;;;;5059694;28;20507;-66
2022/12/04 12:59:19;;;;;;;63.27;33.93;;;3.40;99.90;;;;;;5059525;28;20924;-67
2022/12/04 13:01:51;;;;;;;62.13;32.30;;;3.40;1.00;;;;;;5059930;28;20471;-66
2022/12/04 13:04:25;;;;;;;62.00;33.07;;;3.40;1.00;;;;;;5059964;28;21025;-67
2022/12/04 13:07:03;;;;;;;54.93;31.20;;;3.40;99.90;;;;;;5060651;28;20486;-67